Hobgood, North Carolina
Current Conditions -  °F | °C
As of 8:55 PM on Wednesday 26 Nov 2014 (Local Time) from KETC Reporting Station
Overcast Overcast  
Wind Chill: 40°   Ceiling: 2100
Heat Index: 40°   Visibility: 10mi
Dew Point: 37°   Wind: 3mph
Humidity: 91%   Direction: 270°W
Pressure: 30.09"   Gusts: NA
Location:  36.03°N, 77.4°W
Report Text: KETC 270155Z AUTO 27003KT 10SM OVC021 04/03 A3009 RMK AO2 T00420029
Loading
Personal Weather Stations






























Interactive Weather Map New forecast layout! Learn more

10-Day Weather Forecast

Advertisements
Track Severe Weather on mobile